createdAt,value
2022-08-26T00:02:19.410Z,8.68
2022-08-26T00:04:49.333Z,6.32
2022-08-26T00:07:18.927Z,6.45
2022-08-26T00:09:47.502Z,6.40
2022-08-26T00:12:17.341Z,6.88
2022-08-26T00:14:46.059Z,6.03
2022-08-26T00:17:14.584Z,7.93
2022-08-26T00:19:43.709Z,8.23
2022-08-26T00:22:12.668Z,7.20
2022-08-26T00:24:48.500Z,11.45
2022-08-26T00:27:18.167Z,6.68
2022-08-26T00:29:46.452Z,6.00
2022-08-26T00:32:14.664Z,7.75
2022-08-26T00:34:43.085Z,7.72
2022-08-26T00:37:15.670Z,8.93
2022-08-26T00:39:44.370Z,8.57
2022-08-26T00:42:14.104Z,7.13
2022-08-26T00:44:43.804Z,8.98
2022-08-26T00:47:24.966Z,10.05
2022-08-26T00:49:53.811Z,6.77
2022-08-26T00:52:24.383Z,6.53
2022-08-26T00:54:58.163Z,7.82
2022-08-26T00:57:26.773Z,9.35
2022-08-26T00:59:59.411Z,8.05
2022-08-26T01:02:28.904Z,9.53
2022-08-26T01:05:00.860Z,8.20
2022-08-26T01:07:33.105Z,7.80
2022-08-26T01:10:05.960Z,6.45
2022-08-26T01:12:40.710Z,11.00
2022-08-26T01:15:13.647Z,7.35
2022-08-26T01:17:43.838Z,6.60
2022-08-26T01:20:24.961Z,9.55
2022-08-26T01:22:58.488Z,8.50
2022-08-26T01:25:33.462Z,7.85
2022-08-26T01:28:06.497Z,9.05
2022-08-26T01:30:35.922Z,11.30
2022-08-26T01:33:08.038Z,11.55
2022-08-26T01:35:37.732Z,8.80
2022-08-26T01:38:07.551Z,8.48
2022-08-26T01:40:39.272Z,10.70
2022-08-26T01:43:10.355Z,8.20
2022-08-26T01:45:40.876Z,10.90
2022-08-26T01:48:15.264Z,7.82
2022-08-26T01:50:45.804Z,10.13
2022-08-26T01:53:19.571Z,9.00
2022-08-26T01:55:53.346Z,8.30
2022-08-26T01:58:25.618Z,11.27
2022-08-26T02:00:55.388Z,9.65
2022-08-26T02:03:24.677Z,12.23
2022-08-26T02:05:55.589Z,12.93
2022-08-26T02:08:32.685Z,13.88
2022-08-26T02:11:01.029Z,12.93
2022-08-26T02:13:32.862Z,10.68
2022-08-26T02:16:03.879Z,13.52
2022-08-26T02:18:36.629Z,10.90
2022-08-26T02:21:06.772Z,9.70
2022-08-26T02:23:36.538Z,11.60
2022-08-26T02:26:11.977Z,8.80
2022-08-26T02:28:47.692Z,11.30
2022-08-26T02:31:15.940Z,10.98
2022-08-26T02:33:44.280Z,11.27
2022-08-26T02:36:13.486Z,14.02
2022-08-26T02:38:45.075Z,12.80
2022-08-26T02:41:15.038Z,11.27
2022-08-26T02:43:43.564Z,10.57
2022-08-26T02:46:12.316Z,10.70
2022-08-26T02:48:49.606Z,8.90
2022-08-26T02:51:17.855Z,11.50
2022-08-26T02:53:47.555Z,12.70
2022-08-26T02:56:15.813Z,10.75
2022-08-26T02:58:44.103Z,13.95
2022-08-26T03:01:22.242Z,12.55
2022-08-26T03:03:50.754Z,11.05
2022-08-26T03:06:19.855Z,18.15
2022-08-26T03:08:49.943Z,13.32
2022-08-26T03:11:18.881Z,13.48
2022-08-26T03:13:47.771Z,15.93
2022-08-26T03:16:16.117Z,14.82
2022-08-26T03:18:44.473Z,13.98
2022-08-26T03:21:21.214Z,16.30
2022-08-26T03:23:50.932Z,10.75
2022-08-26T03:26:19.221Z,13.20
2022-08-26T03:29:04.940Z,12.07
2022-08-26T03:31:33.194Z,13.50
2022-08-26T03:34:01.541Z,13.98
2022-08-26T03:36:30.232Z,16.15
2022-08-26T03:38:59.896Z,18.30
2022-08-26T03:41:28.149Z,20.92
2022-08-26T03:44:01.430Z,17.13
2022-08-26T03:46:31.784Z,22.05
2022-08-26T03:49:00.297Z,21.70
2022-08-26T03:51:28.942Z,22.67
2022-08-26T03:53:57.183Z,19.40
2022-08-26T03:56:27.137Z,20.45
2022-08-26T03:58:55.802Z,20.70
2022-08-26T04:01:24.354Z,22.17
2022-08-26T04:04:01.510Z,23.90
2022-08-26T04:06:31.740Z,20.98
2022-08-26T04:09:02.666Z,22.10
2022-08-26T04:11:35.948Z,26.70
2022-08-26T04:14:09.331Z,27.88
2022-08-26T04:16:38.890Z,24.90
2022-08-26T04:19:07.631Z,25.53
2022-08-26T04:21:38.159Z,28.57
2022-08-26T04:24:11.366Z,27.33
2022-08-26T04:26:43.650Z,30.35
2022-08-26T04:29:14.071Z,26.65
2022-08-26T04:31:42.777Z,28.58
2022-08-26T04:34:11.665Z,29.10
2022-08-26T04:36:43.094Z,27.70
2022-08-26T04:39:14.885Z,36.38
2022-08-26T04:41:44.971Z,35.00
2022-08-26T04:44:13.697Z,31.27
2022-08-26T04:46:43.903Z,32.65
2022-08-26T04:49:13.593Z,34.63
2022-08-26T04:51:41.821Z,40.65
2022-08-26T04:54:12.339Z,41.60
2022-08-26T04:56:44.567Z,43.83
2022-08-26T04:59:18.116Z,46.13
2022-08-26T05:01:47.934Z,45.08
2022-08-26T05:04:18.818Z,48.05
2022-08-26T05:06:47.549Z,42.63
2022-08-26T05:09:15.952Z,41.65
2022-08-26T05:11:45.616Z,49.60
2022-08-26T05:14:18.602Z,50.77
2022-08-26T05:16:47.876Z,48.63
2022-08-26T05:19:19.244Z,53.90
2022-08-26T05:21:48.723Z,46.05
2022-08-26T05:24:17.880Z,60.65
2022-08-26T05:26:47.241Z,51.20
2022-08-26T05:29:18.282Z,56.38
2022-08-26T05:31:51.025Z,54.70
2022-08-26T05:34:20.827Z,55.25
2022-08-26T05:36:49.401Z,58.63
2022-08-26T05:39:17.618Z,54.43
2022-08-26T05:41:46.119Z,57.70
2022-08-26T05:44:18.838Z,60.97
2022-08-26T05:46:47.385Z,63.77
2022-08-26T05:49:16.667Z,56.73
2022-08-26T05:51:46.370Z,61.40
2022-08-26T05:54:22.111Z,64.43
2022-08-26T05:56:51.333Z,61.80
2022-08-26T05:59:24.214Z,61.57
2022-08-26T06:01:53.457Z,57.87
2022-08-26T06:04:23.188Z,55.80
2022-08-26T06:06:54.982Z,56.63
2022-08-26T06:09:23.307Z,55.20
2022-08-26T06:11:52.075Z,62.67
2022-08-26T06:14:23.840Z,53.88
2022-08-26T06:16:52.067Z,56.22
2022-08-26T06:19:21.580Z,57.15
2022-08-26T06:21:54.238Z,57.90
2022-08-26T06:24:40.997Z,57.17
2022-08-26T06:27:13.616Z,58.70
2022-08-26T06:29:43.357Z,54.33
2022-08-26T06:32:11.587Z,53.97
2022-08-26T06:34:39.817Z,53.28
2022-08-26T06:37:08.812Z,54.72
2022-08-26T06:39:40.209Z,58.05
2022-08-26T06:42:10.863Z,55.30
2022-08-26T06:44:40.936Z,55.03
2022-08-26T06:47:10.722Z,51.30
2022-08-26T06:49:38.922Z,47.47
2022-08-26T06:52:08.047Z,48.55
2022-08-26T06:54:37.063Z,49.83
2022-08-26T06:57:07.245Z,51.92
2022-08-26T06:59:35.464Z,47.47
2022-08-26T07:02:04.023Z,49.22
2022-08-26T07:04:35.722Z,53.05
2022-08-26T07:07:04.084Z,51.55
2022-08-26T07:09:33.187Z,47.72
2022-08-26T07:12:03.865Z,46.47
2022-08-26T07:14:32.797Z,54.63
2022-08-26T07:17:02.877Z,47.78
2022-08-26T07:19:31.865Z,43.57
2022-08-26T07:22:03.845Z,44.17
2022-08-26T07:24:33.012Z,42.83
2022-08-26T07:27:02.711Z,46.28
2022-08-26T07:29:31.448Z,46.92
2022-08-26T07:31:59.958Z,49.47
2022-08-26T07:34:28.224Z,41.28
2022-08-26T07:36:56.822Z,46.28
2022-08-26T07:39:27.491Z,46.00
2022-08-26T07:41:56.284Z,42.30
2022-08-26T07:44:27.207Z,45.28
2022-08-26T07:46:55.680Z,43.58
2022-08-26T07:49:26.887Z,41.95
2022-08-26T07:51:56.950Z,41.50
2022-08-26T07:54:26.970Z,41.85
2022-08-26T07:56:56.194Z,44.00
2022-08-26T07:59:24.941Z,41.78
2022-08-26T08:01:53.865Z,42.92
2022-08-26T08:04:26.375Z,45.55
2022-08-26T08:06:55.289Z,39.78
2022-08-26T08:09:24.227Z,39.40
2022-08-26T08:11:54.300Z,38.55
2022-08-26T08:14:22.610Z,38.97
2022-08-26T08:16:54.577Z,40.72
2022-08-26T08:19:23.955Z,37.30
2022-08-26T08:22:01.281Z,39.75
2022-08-26T08:24:30.164Z,37.80
2022-08-26T08:26:59.676Z,35.65
2022-08-26T08:29:29.625Z,35.07
2022-08-26T08:31:59.995Z,39.13
2022-08-26T08:34:29.434Z,38.80
2022-08-26T08:36:58.207Z,37.67
2022-08-26T08:39:26.715Z,37.58
2022-08-26T08:42:23.547Z,33.17
2022-08-26T08:44:56.604Z,36.20
2022-08-26T08:47:32.409Z,35.95
2022-08-26T08:50:07.468Z,36.30
2022-08-26T08:52:37.251Z,35.55
2022-08-26T08:55:11.006Z,34.60
2022-08-26T08:57:53.632Z,31.45
2022-08-26T09:00:30.359Z,34.75
2022-08-26T09:03:02.806Z,31.33
2022-08-26T09:05:36.827Z,28.67
2022-08-26T09:08:11.074Z,34.22
2022-08-26T09:10:42.879Z,30.45
2022-08-26T09:13:16.393Z,31.35
2022-08-26T09:15:52.862Z,29.83
2022-08-26T09:18:36.903Z,28.67
2022-08-26T09:21:08.364Z,27.92
2022-08-26T09:23:43.544Z,29.60
2022-08-26T09:26:17.876Z,27.00
2022-08-26T09:28:50.247Z,27.67
2022-08-26T09:31:23.390Z,28.40
2022-08-26T09:34:12.816Z,27.25
2022-08-26T09:36:48.592Z,26.15
2022-08-26T09:39:33.449Z,27.33
2022-08-26T09:42:11.886Z,25.43
2022-08-26T09:44:59.463Z,27.70
2022-08-26T09:47:32.098Z,25.02
2022-08-26T09:50:11.021Z,25.27
2022-08-26T09:52:42.782Z,26.88
2022-08-26T09:55:15.619Z,28.05
2022-08-26T09:57:49.552Z,25.77
2022-08-26T10:00:38.541Z,25.00
2022-08-26T10:03:10.769Z,25.75
2022-08-26T10:05:43.924Z,23.83
2022-08-26T10:08:25.227Z,24.02
2022-08-26T10:10:55.331Z,31.55
2022-08-26T10:13:29.572Z,25.35
2022-08-26T10:16:07.192Z,23.17
2022-08-26T10:18:43.076Z,25.90
2022-08-26T10:21:15.301Z,22.00
2022-08-26T10:23:49.487Z,24.80
2022-08-26T10:26:24.732Z,25.23
2022-08-26T10:29:01.379Z,23.83
2022-08-26T10:31:40.289Z,23.45
2022-08-26T10:34:12.590Z,30.90
2022-08-26T10:37:15.770Z,22.95
2022-08-26T10:39:57.360Z,26.37
2022-08-26T10:42:33.205Z,36.88
2022-08-26T10:45:11.619Z,23.90
2022-08-26T10:47:46.849Z,21.37
2022-08-26T10:50:17.972Z,20.70
2022-08-26T10:52:57.781Z,21.70
2022-08-26T10:55:35.656Z,18.65
2022-08-26T10:58:13.996Z,19.63
2022-08-26T11:01:17.941Z,20.85
2022-08-26T11:04:00.334Z,19.98
2022-08-26T11:06:31.383Z,19.30
2022-08-26T11:09:01.243Z,22.25
2022-08-26T11:11:53.558Z,19.23
2022-08-26T11:14:53.139Z,22.33
2022-08-26T11:17:56.564Z,21.83
2022-08-26T11:20:41.534Z,19.70
2022-08-26T11:23:40.416Z,17.27
2022-08-26T11:26:35.962Z,22.30
2022-08-26T11:29:13.654Z,19.73
2022-08-26T11:31:56.863Z,19.40
2022-08-26T11:34:55.182Z,20.05
2022-08-26T11:37:32.530Z,24.70
2022-08-26T11:40:03.900Z,23.05
2022-08-26T11:42:41.978Z,21.42
2022-08-26T11:45:23.782Z,22.38
2022-08-26T11:47:52.126Z,26.33
2022-08-26T11:50:23.438Z,24.20
2022-08-26T11:52:55.847Z,27.90
2022-08-26T11:55:24.420Z,23.33
2022-08-26T11:57:55.811Z,22.98
2022-08-26T12:00:33.570Z,28.23
2022-08-26T12:03:07.853Z,24.20
2022-08-26T12:05:43.351Z,25.67
2022-08-26T12:08:17.511Z,26.92
2022-08-26T12:10:45.909Z,17.30
2022-08-26T12:13:22.285Z,18.52
2022-08-26T12:15:56.058Z,20.80
2022-08-26T12:18:28.799Z,23.03
2022-08-26T12:21:02.260Z,22.07
2022-08-26T12:23:43.823Z,22.35
2022-08-26T12:26:23.335Z,19.38
2022-08-26T12:28:56.063Z,30.40
2022-08-26T12:31:30.234Z,19.95
2022-08-26T12:34:01.459Z,19.20
2022-08-26T12:36:33.139Z,23.60
2022-08-26T12:39:12.681Z,21.63
2022-08-26T12:41:44.027Z,18.13
2022-08-26T12:44:37.597Z,19.80
2022-08-26T12:47:10.048Z,15.85
2022-08-26T12:49:40.476Z,13.43
2022-08-26T12:52:30.011Z,18.70
2022-08-26T12:55:02.837Z,17.00
2022-08-26T12:57:35.157Z,14.10
2022-08-26T13:00:40.826Z,21.95
2022-08-26T13:03:38.478Z,19.10
2022-08-26T13:06:15.543Z,13.88
2022-08-26T13:08:45.681Z,15.15
2022-08-26T13:11:20.288Z,19.35
2022-08-26T13:13:51.784Z,15.85
2022-08-26T13:16:20.569Z,14.63
2022-08-26T13:18:51.089Z,10.40
2022-08-26T13:21:22.939Z,15.60
2022-08-26T13:23:52.095Z,10.80
2022-08-26T13:26:23.117Z,12.35
2022-08-26T13:29:01.368Z,11.48
2022-08-26T13:31:32.343Z,13.67
2022-08-26T13:34:02.235Z,13.45
2022-08-26T13:36:30.653Z,14.40
2022-08-26T13:38:58.928Z,16.85
2022-08-26T13:41:29.243Z,8.70
2022-08-26T13:43:58.784Z,12.60
2022-08-26T13:46:28.162Z,9.35
2022-08-26T13:48:56.706Z,9.90
2022-08-26T13:51:25.337Z,11.40
2022-08-26T13:53:54.057Z,12.85
2022-08-26T13:56:22.917Z,10.07
2022-08-26T13:58:52.504Z,10.32
2022-08-26T14:01:20.963Z,14.15
2022-08-26T14:03:49.499Z,8.50
2022-08-26T14:06:17.786Z,8.23
2022-08-26T14:08:46.210Z,8.23
2022-08-26T14:11:14.476Z,7.35
2022-08-26T14:13:42.727Z,7.95
2022-08-26T14:16:18.179Z,10.52
2022-08-26T14:18:50.567Z,9.82
2022-08-26T14:21:20.553Z,10.45
2022-08-26T14:23:48.845Z,8.65
2022-08-26T14:26:28.465Z,10.65
2022-08-26T14:28:58.911Z,10.10
2022-08-26T14:31:30.122Z,11.60
2022-08-26T14:33:59.756Z,8.63
2022-08-26T14:36:32.280Z,13.38
2022-08-26T14:39:04.135Z,11.88
2022-08-26T14:41:33.268Z,9.77
2022-08-26T14:44:03.848Z,7.53
2022-08-26T14:46:40.787Z,12.02
2022-08-26T14:49:10.767Z,9.68
2022-08-26T14:51:39.474Z,7.88
2022-08-26T14:54:13.014Z,8.82
2022-08-26T14:56:47.518Z,8.30
2022-08-26T14:59:17.517Z,11.30
2022-08-26T15:01:47.459Z,11.55
2022-08-26T15:04:16.253Z,12.10
2022-08-26T15:06:44.612Z,8.65
2022-08-26T15:09:13.022Z,8.75
2022-08-26T15:11:41.378Z,8.10
2022-08-26T15:14:18.959Z,11.60
2022-08-26T15:16:49.679Z,10.65
2022-08-26T15:19:19.275Z,10.30
2022-08-26T15:21:48.181Z,8.85
2022-08-26T15:24:19.138Z,8.60
2022-08-26T15:26:48.225Z,13.43
2022-08-26T15:29:16.810Z,10.23
2022-08-26T15:31:45.047Z,10.80
2022-08-26T15:34:16.970Z,10.60
2022-08-26T15:36:46.826Z,11.45
2022-08-26T15:39:16.302Z,6.07
2022-08-26T15:41:45.021Z,9.55
2022-08-26T15:44:16.199Z,10.07
2022-08-26T15:46:45.125Z,6.18
2022-08-26T15:49:18.258Z,11.77
2022-08-26T15:51:50.349Z,10.50
2022-08-26T15:54:21.212Z,6.75
2022-08-26T15:56:52.041Z,6.05
2022-08-26T15:59:21.584Z,11.10
2022-08-26T16:01:49.867Z,9.43
2022-08-26T16:04:20.137Z,7.63
2022-08-26T16:06:50.313Z,11.88
2022-08-26T16:09:19.019Z,7.03
2022-08-26T16:11:47.198Z,6.80
2022-08-26T16:14:15.541Z,10.55
2022-08-26T16:16:43.775Z,5.43
2022-08-26T16:19:12.572Z,8.48
2022-08-26T16:21:43.072Z,7.43
2022-08-26T16:24:11.916Z,9.98
2022-08-26T16:26:42.308Z,16.23
2022-08-26T16:29:12.279Z,14.38
2022-08-26T16:31:40.909Z,15.02
2022-08-26T16:34:10.497Z,9.43
2022-08-26T16:36:40.055Z,10.33
2022-08-26T16:39:10.535Z,7.32
2022-08-26T16:41:38.777Z,6.60
2022-08-26T16:44:08.390Z,8.90
2022-08-26T16:46:37.069Z,9.35
2022-08-26T16:49:05.520Z,6.13
2022-08-26T16:51:37.831Z,7.50
2022-08-26T16:54:09.243Z,7.23
2022-08-26T16:56:38.439Z,8.43
2022-08-26T16:59:10.478Z,7.20
2022-08-26T17:01:38.960Z,6.72
2022-08-26T17:04:07.183Z,8.80
2022-08-26T17:06:35.471Z,9.37
2022-08-26T17:09:03.847Z,11.30
2022-08-26T17:11:33.356Z,11.50
2022-08-26T17:14:01.622Z,9.98
2022-08-26T17:16:30.099Z,6.50
2022-08-26T17:18:59.538Z,8.93
2022-08-26T17:21:28.915Z,9.52
2022-08-26T17:23:57.334Z,8.70
2022-08-26T17:26:25.739Z,7.13
2022-08-26T17:28:55.610Z,7.57
2022-08-26T17:31:24.813Z,14.13
2022-08-26T17:33:54.426Z,11.27
2022-08-26T17:36:27.856Z,10.55
2022-08-26T17:38:57.030Z,6.80
2022-08-26T17:41:25.920Z,7.72
2022-08-26T17:43:55.677Z,16.48
2022-08-26T17:46:24.157Z,6.20
2022-08-26T17:48:52.487Z,8.93
2022-08-26T17:51:21.708Z,9.07
2022-08-26T17:53:50.779Z,10.82
2022-08-26T17:56:24.989Z,6.30
2022-08-26T17:58:56.480Z,7.22
2022-08-26T18:01:27.467Z,4.25
2022-08-26T18:04:00.337Z,6.72
2022-08-26T18:06:30.534Z,7.78
2022-08-26T18:08:59.229Z,8.90
2022-08-26T18:11:28.382Z,5.85
2022-08-26T18:13:58.347Z,9.07
2022-08-26T18:16:27.230Z,7.30
2022-08-26T18:18:55.751Z,6.30
2022-08-26T18:21:27.161Z,5.60
2022-08-26T18:23:55.848Z,5.97
2022-08-26T18:26:26.706Z,6.00
2022-08-26T18:28:55.173Z,9.07
2022-08-26T18:31:25.031Z,5.57
2022-08-26T18:33:53.436Z,10.48
2022-08-26T18:36:25.855Z,7.60
2022-08-26T18:38:54.910Z,4.32
2022-08-26T18:41:25.256Z,8.98
2022-08-26T18:43:54.191Z,5.90
2022-08-26T18:46:26.304Z,5.93
2022-08-26T18:48:55.618Z,7.30
2022-08-26T18:51:26.182Z,10.10
2022-08-26T18:53:54.716Z,5.60
2022-08-26T18:56:23.508Z,13.07
2022-08-26T18:58:51.791Z,8.93
2022-08-26T19:01:25.453Z,7.45
2022-08-26T19:03:57.176Z,5.97
2022-08-26T19:06:26.869Z,8.20
2022-08-26T19:08:55.697Z,3.90
2022-08-26T19:11:31.642Z,4.97
2022-08-26T19:14:01.559Z,3.60
2022-08-26T19:16:30.546Z,8.38
2022-08-26T19:19:01.946Z,5.05
2022-08-26T19:21:30.984Z,4.95
2022-08-26T19:24:00.966Z,6.15
2022-08-26T19:26:31.607Z,3.30
2022-08-26T19:29:00.307Z,3.90
2022-08-26T19:31:30.022Z,3.92
2022-08-26T19:33:59.905Z,6.35
2022-08-26T19:36:29.205Z,4.80
2022-08-26T19:38:57.540Z,5.85
2022-08-26T19:41:36.907Z,3.88
2022-08-26T19:44:09.611Z,4.57
2022-08-26T19:49:13.259Z,5.35
2022-08-26T19:51:41.450Z,5.60
2022-08-26T19:54:09.750Z,7.72
2022-08-26T19:56:37.892Z,6.88
2022-08-26T19:59:06.080Z,4.65
2022-08-26T20:01:34.361Z,3.72
2022-08-26T20:04:02.865Z,5.13
2022-08-26T20:06:32.573Z,6.22
2022-08-26T20:09:00.804Z,2.63
2022-08-26T20:11:29.802Z,6.05
2022-08-26T20:13:59.668Z,7.28
2022-08-26T20:16:27.895Z,4.97
2022-08-26T20:19:13.381Z,8.20
2022-08-26T20:21:43.184Z,6.63
2022-08-26T20:24:13.861Z,4.83
2022-08-26T20:26:44.167Z,4.65
2022-08-26T20:29:15.845Z,5.10
2022-08-26T20:31:44.818Z,2.75
2022-08-26T20:34:13.892Z,3.30
2022-08-26T20:36:44.103Z,8.20
2022-08-26T20:39:12.863Z,4.20
2022-08-26T20:41:41.512Z,6.93
2022-08-26T20:44:10.479Z,7.05
2022-08-26T20:46:38.889Z,6.00
2022-08-26T20:49:08.196Z,7.53
2022-08-26T20:51:38.075Z,9.48
2022-08-26T20:54:08.784Z,7.55
2022-08-26T20:56:37.532Z,6.20
2022-08-26T20:59:07.843Z,5.60
2022-08-26T21:01:42.427Z,3.13
2022-08-26T21:04:14.174Z,7.43
2022-08-26T21:06:46.616Z,7.22
2022-08-26T21:09:19.893Z,5.23
2022-08-26T21:11:49.801Z,6.40
2022-08-26T21:14:18.956Z,6.20
2022-08-26T21:16:47.765Z,3.30
2022-08-26T21:19:18.652Z,7.45
2022-08-26T21:21:47.373Z,4.35
2022-08-26T21:24:16.340Z,4.30
2022-08-26T21:26:46.496Z,5.97
2022-08-26T21:29:15.339Z,4.68
2022-08-26T21:31:46.354Z,8.95
2022-08-26T21:34:15.542Z,3.78
2022-08-26T21:36:43.727Z,9.35
2022-08-26T21:39:12.435Z,5.47
2022-08-26T21:41:41.591Z,8.00
2022-08-26T21:44:12.643Z,5.35
2022-08-26T21:46:41.486Z,5.30
2022-08-26T21:49:12.234Z,10.35
2022-08-26T21:51:42.995Z,4.07
2022-08-26T21:54:12.112Z,4.40
2022-08-26T21:56:42.100Z,7.85
2022-08-26T21:59:11.891Z,6.63
2022-08-26T22:01:40.204Z,5.00
2022-08-26T22:04:10.136Z,8.82
2022-08-26T22:06:43.273Z,4.97
2022-08-26T22:09:12.862Z,5.97
2022-08-26T22:11:41.367Z,7.70
2022-08-26T22:14:11.555Z,6.93
2022-08-26T22:16:39.915Z,6.10
2022-08-26T22:19:08.288Z,4.88
2022-08-26T22:21:41.939Z,5.35
2022-08-26T22:24:12.149Z,5.90
2022-08-26T22:26:40.429Z,9.45
2022-08-26T22:29:08.684Z,3.47
2022-08-26T22:31:38.973Z,4.20
2022-08-26T22:34:09.718Z,8.88
2022-08-26T22:36:43.163Z,5.32
2022-08-26T22:39:13.489Z,5.50
2022-08-26T22:41:42.957Z,4.97
2022-08-26T22:44:12.475Z,4.10
2022-08-26T22:46:43.295Z,4.60
2022-08-26T22:49:15.708Z,4.38
2022-08-26T22:51:44.585Z,5.90
2022-08-26T22:54:12.945Z,3.70
2022-08-26T22:56:41.739Z,5.07
2022-08-26T22:59:10.974Z,4.80
2022-08-26T23:01:42.619Z,5.80
2022-08-26T23:04:11.099Z,7.60
2022-08-26T23:06:47.437Z,5.20
2022-08-26T23:09:18.134Z,5.03
2022-08-26T23:11:47.531Z,3.80
2022-08-26T23:14:17.131Z,6.93
2022-08-26T23:16:47.326Z,4.57
2022-08-26T23:19:18.517Z,3.83
2022-08-26T23:21:47.153Z,3.95
2022-08-26T23:24:15.742Z,3.90
2022-08-26T23:26:44.229Z,3.90
2022-08-26T23:29:15.501Z,5.97
2022-08-26T23:31:44.567Z,8.40
2022-08-26T23:34:32.926Z,3.92
2022-08-26T23:37:01.580Z,3.25
2022-08-26T23:39:30.194Z,3.10
2022-08-26T23:42:01.525Z,4.23
2022-08-26T23:44:31.040Z,3.70
2022-08-26T23:46:59.994Z,5.33
2022-08-26T23:49:30.327Z,3.45
2022-08-26T23:52:16.461Z,10.10
2022-08-26T23:54:45.309Z,5.35
2022-08-26T23:57:13.520Z,5.35
2022-08-26T23:59:41.733Z,4.30
